createdAt,value
2018-06-09T00:01:20.927Z,17.00
2018-06-09T00:03:49.931Z,17.00
2018-06-09T00:06:18.953Z,16.90
2018-06-09T00:08:47.947Z,16.90
2018-06-09T00:11:16.994Z,16.90
2018-06-09T00:13:45.969Z,16.90
2018-06-09T00:16:15.048Z,16.80
2018-06-09T00:18:44.347Z,16.80
2018-06-09T00:21:13.343Z,16.70
2018-06-09T00:23:42.475Z,16.70
2018-06-09T00:26:11.471Z,16.80
2018-06-09T00:28:40.537Z,16.70
2018-06-09T00:31:09.581Z,16.80
2018-06-09T00:33:38.608Z,16.80
2018-06-09T00:36:07.593Z,16.80
2018-06-09T00:38:36.655Z,16.80
2018-06-09T00:43:34.246Z,16.80
2018-06-09T00:48:32.835Z,16.90
2018-06-09T00:53:30.432Z,17.00
2018-06-09T00:56:10.556Z,17.00
2018-06-09T00:58:39.579Z,17.10
2018-06-09T01:01:09.604Z,17.20
2018-06-09T01:03:38.639Z,17.20
2018-06-09T01:06:07.643Z,17.30
2018-06-09T01:08:36.696Z,17.30
2018-06-09T01:11:05.719Z,17.30
2018-06-09T01:13:34.771Z,17.30
2018-06-09T01:16:03.805Z,17.20
2018-06-09T01:18:32.849Z,17.10
2018-06-09T01:21:01.875Z,17.00
2018-06-09T01:23:30.937Z,17.00
2018-06-09T01:25:59.968Z,17.00
2018-06-09T01:28:28.954Z,17.00
2018-06-09T01:30:57.980Z,16.90
2018-06-09T01:33:27.012Z,16.90
2018-06-09T01:35:56.047Z,16.80
2018-06-09T01:38:25.055Z,16.80
2018-06-09T01:40:54.081Z,16.70
2018-06-09T01:43:23.198Z,16.70
2018-06-09T01:45:52.222Z,16.70
2018-06-09T01:48:21.281Z,16.60
2018-06-09T01:50:50.299Z,16.60
2018-06-09T01:53:19.335Z,16.60
2018-06-09T01:55:48.814Z,16.60
2018-06-09T01:58:18.392Z,16.50
2018-06-09T02:00:47.399Z,16.50
2018-06-09T02:03:16.468Z,16.50
2018-06-09T02:05:45.497Z,16.50
2018-06-09T02:10:43.079Z,16.50
2018-06-09T02:13:12.124Z,16.50
2018-06-09T02:15:41.168Z,16.50
2018-06-09T02:18:10.302Z,16.50
2018-06-09T02:20:39.319Z,16.50
2018-06-09T02:23:08.359Z,16.50
2018-06-09T02:25:37.458Z,16.50
2018-06-09T02:28:06.465Z,16.60
2018-06-09T02:30:35.500Z,16.60
2018-06-09T02:35:33.134Z,16.50
2018-06-09T02:38:02.469Z,16.40
2018-06-09T02:40:31.497Z,16.40
2018-06-09T02:43:00.522Z,16.30
2018-06-09T02:45:29.569Z,16.30
2018-06-09T02:47:58.626Z,16.30
2018-06-09T02:50:27.619Z,16.30
2018-06-09T02:52:56.662Z,16.30
2018-06-09T02:55:25.682Z,16.30
2018-06-09T02:57:54.827Z,16.30
2018-06-09T03:00:24.163Z,16.30
2018-06-09T03:02:53.839Z,16.30
2018-06-09T03:05:22.991Z,16.20
2018-06-09T03:07:52.018Z,16.20
2018-06-09T03:10:21.099Z,16.20
2018-06-09T03:12:50.155Z,16.10
2018-06-09T03:15:19.220Z,16.10
2018-06-09T03:17:48.216Z,16.00
2018-06-09T03:20:17.267Z,16.00
2018-06-09T03:22:46.268Z,16.10
2018-06-09T03:25:15.310Z,16.00
2018-06-09T03:27:44.338Z,16.10
2018-06-09T03:30:13.404Z,16.00
2018-06-09T03:32:42.815Z,16.00
2018-06-09T03:35:11.861Z,16.00
2018-06-09T03:37:40.923Z,16.00
2018-06-09T03:40:09.951Z,16.00
2018-06-09T03:42:39.004Z,16.00
2018-06-09T03:45:08.031Z,16.00
2018-06-09T03:47:37.080Z,16.10
2018-06-09T03:50:06.104Z,16.10
2018-06-09T03:52:35.151Z,16.20
2018-06-09T03:55:04.169Z,16.20
2018-06-09T03:57:33.744Z,16.20
2018-06-09T04:00:02.815Z,16.30
2018-06-09T04:02:31.839Z,16.30
2018-06-09T04:05:00.904Z,16.40
2018-06-09T04:07:29.923Z,16.40
2018-06-09T04:09:58.954Z,16.50
2018-06-09T04:12:28.550Z,16.60
2018-06-09T04:14:57.639Z,16.70
2018-06-09T04:17:26.685Z,16.70
2018-06-09T04:19:55.739Z,16.90
2018-06-09T04:24:53.355Z,17.10
2018-06-09T04:27:22.547Z,17.20
2018-06-09T04:29:51.575Z,17.30
2018-06-09T04:32:20.790Z,17.50
2018-06-09T04:34:49.787Z,17.50
2018-06-09T04:39:47.405Z,17.60
2018-06-09T04:42:16.438Z,17.50
2018-06-09T04:44:45.450Z,17.50
2018-06-09T04:47:14.472Z,17.50
2018-06-09T04:49:43.514Z,17.50
2018-06-09T04:52:12.547Z,17.60
2018-06-09T04:54:41.572Z,17.60
2018-06-09T04:57:10.602Z,17.70
2018-06-09T04:59:39.629Z,17.70
2018-06-09T05:02:08.632Z,17.70
2018-06-09T05:04:37.671Z,17.70
2018-06-09T05:07:06.699Z,17.80
2018-06-09T05:09:35.781Z,17.90
2018-06-09T05:12:04.844Z,18.00
2018-06-09T05:14:33.891Z,18.00
2018-06-09T05:17:02.988Z,18.00
2018-06-09T05:19:31.989Z,18.10
2018-06-09T05:22:01.074Z,18.30
2018-06-09T05:24:30.231Z,18.40
2018-06-09T05:26:59.291Z,18.60
2018-06-09T05:29:28.280Z,18.70
2018-06-09T05:31:57.312Z,18.80
2018-06-09T05:34:26.352Z,19.00
2018-06-09T05:36:55.434Z,19.00
2018-06-09T05:39:24.454Z,19.10
2018-06-09T05:41:53.459Z,19.40
2018-06-09T05:44:22.480Z,19.50
2018-06-09T05:46:51.498Z,19.60
2018-06-09T05:49:20.578Z,19.60
2018-06-09T05:51:49.579Z,19.70
2018-06-09T05:54:18.618Z,19.90
2018-06-09T05:56:47.609Z,19.90
2018-06-09T05:59:16.646Z,19.90
2018-06-09T06:01:45.717Z,20.10
2018-06-09T06:04:14.728Z,20.00
2018-06-09T06:06:43.762Z,19.80
2018-06-09T06:09:13.112Z,19.60
2018-06-09T06:11:42.146Z,19.70
2018-06-09T06:14:11.247Z,19.90
2018-06-09T06:16:40.345Z,20.20
2018-06-09T06:19:09.335Z,20.40
2018-06-09T06:21:38.447Z,20.60
2018-06-09T06:24:07.458Z,20.80
2018-06-09T06:26:36.517Z,20.90
2018-06-09T06:29:05.615Z,21.10
2018-06-09T06:31:34.671Z,21.20
2018-06-09T06:34:03.749Z,21.20
2018-06-09T06:36:32.842Z,21.30
2018-06-09T06:39:01.889Z,21.50
2018-06-09T06:41:31.167Z,21.70
2018-06-09T06:44:00.202Z,21.90
2018-06-09T06:46:29.515Z,22.00
2018-06-09T06:48:58.615Z,22.10
2018-06-09T06:51:27.654Z,22.10
2018-06-09T06:53:56.697Z,22.30
2018-06-09T06:56:25.736Z,22.50
2018-06-09T06:58:54.764Z,22.40
2018-06-09T07:01:23.776Z,22.20
2018-06-09T07:03:52.839Z,22.30
2018-06-09T07:06:22.744Z,22.40
2018-06-09T07:08:51.955Z,22.30
2018-06-09T07:11:21.509Z,22.50
2018-06-09T07:13:50.727Z,22.60
2018-06-09T07:16:19.987Z,22.80
2018-06-09T07:18:49.008Z,23.00
2018-06-09T07:21:18.044Z,23.10
2018-06-09T07:26:15.715Z,23.30
2018-06-09T07:28:44.720Z,23.10
2018-06-09T07:31:13.812Z,22.80
2018-06-09T07:33:42.866Z,22.70
2018-06-09T07:36:11.955Z,22.70
2018-06-09T07:38:40.985Z,22.70
2018-06-09T07:41:10.072Z,22.70
2018-06-09T07:43:39.148Z,22.70
2018-06-09T07:46:08.354Z,22.60
2018-06-09T07:48:37.587Z,22.40
2018-06-09T07:51:06.624Z,22.40
2018-06-09T07:53:36.250Z,22.10
2018-06-09T07:56:05.311Z,22.20
2018-06-09T07:58:35.413Z,22.40
2018-06-09T08:01:04.452Z,22.80
2018-06-09T08:03:33.599Z,22.90
2018-06-09T08:06:02.699Z,22.80
2018-06-09T08:08:31.951Z,22.70
2018-06-09T08:11:01.064Z,22.60
2018-06-09T08:13:30.202Z,22.50
2018-06-09T08:15:59.342Z,22.40
2018-06-09T08:18:28.530Z,22.40
2018-06-09T08:20:57.605Z,22.30
2018-06-09T08:23:26.642Z,22.30
2018-06-09T08:25:55.693Z,22.20
2018-06-09T08:28:24.718Z,22.10
2018-06-09T08:30:53.770Z,22.20
2018-06-09T08:33:22.806Z,22.30
2018-06-09T08:35:51.847Z,22.30
2018-06-09T08:38:20.884Z,22.30
2018-06-09T08:40:49.951Z,22.30
2018-06-09T08:43:18.942Z,22.40
2018-06-09T08:45:47.999Z,22.50
2018-06-09T08:48:17.231Z,22.70
2018-06-09T08:50:46.271Z,22.70
2018-06-09T08:53:15.283Z,23.00
2018-06-09T08:55:44.354Z,23.20
2018-06-09T08:58:13.372Z,23.50
2018-06-09T09:00:42.420Z,23.90
2018-06-09T09:03:11.470Z,24.30
2018-06-09T09:05:40.548Z,24.80
2018-06-09T09:08:09.591Z,25.10
2018-06-09T09:10:38.675Z,25.40
2018-06-09T09:13:07.733Z,25.40
2018-06-09T09:15:36.804Z,25.10
2018-06-09T09:18:05.920Z,25.20
2018-06-09T09:20:34.984Z,25.30
2018-06-09T09:23:04.137Z,25.70
2018-06-09T09:25:33.136Z,25.60
2018-06-09T09:28:02.208Z,25.20
2018-06-09T09:30:31.249Z,25.30
2018-06-09T09:33:00.259Z,25.40
2018-06-09T09:35:29.318Z,25.20
2018-06-09T09:37:58.315Z,24.80
2018-06-09T09:40:27.413Z,24.40
2018-06-09T09:42:56.412Z,24.20
2018-06-09T09:45:25.468Z,24.10
2018-06-09T09:47:54.512Z,24.10
2018-06-09T09:50:23.551Z,24.00
2018-06-09T09:52:52.564Z,24.20
2018-06-09T09:55:21.663Z,24.30
2018-06-09T09:58:00.083Z,24.30
2018-06-09T10:00:34.454Z,24.20
2018-06-09T10:03:03.485Z,24.10
2018-06-09T10:05:32.543Z,24.20
2018-06-09T10:08:01.557Z,24.20
2018-06-09T10:10:30.631Z,24.20
2018-06-09T10:12:59.643Z,24.20
2018-06-09T10:17:57.251Z,24.60
2018-06-09T10:20:26.291Z,25.00
2018-06-09T10:22:55.367Z,25.30
2018-06-09T10:25:24.952Z,25.50
2018-06-09T10:27:53.987Z,25.50
2018-06-09T10:30:23.021Z,25.70
2018-06-09T10:32:52.091Z,25.80
2018-06-09T10:35:21.102Z,25.50
2018-06-09T10:37:50.091Z,25.20
2018-06-09T10:40:19.142Z,24.90
2018-06-09T10:42:48.156Z,24.70
2018-06-09T10:45:17.265Z,24.60
2018-06-09T10:47:46.317Z,24.70
2018-06-09T10:50:15.332Z,24.80
2018-06-09T10:52:44.331Z,25.00
2018-06-09T10:55:13.358Z,25.30
2018-06-09T10:57:42.339Z,25.40
2018-06-09T11:00:12.534Z,25.10
2018-06-09T11:02:41.678Z,25.00
2018-06-09T11:05:14.971Z,25.20
2018-06-09T11:07:44.258Z,25.20
2018-06-09T11:10:13.354Z,25.60
2018-06-09T11:12:42.483Z,25.60
2018-06-09T11:15:12.826Z,25.50
2018-06-09T11:17:42.768Z,25.60
2018-06-09T11:20:11.949Z,25.60
2018-06-09T11:22:41.008Z,25.50
2018-06-09T11:25:10.013Z,25.70
2018-06-09T11:27:39.039Z,25.80
2018-06-09T11:30:08.059Z,25.90
2018-06-09T11:32:37.182Z,25.80
2018-06-09T11:35:06.315Z,25.70
2018-06-09T11:37:35.370Z,25.80
2018-06-09T11:42:33.324Z,26.20
2018-06-09T11:45:02.370Z,26.10
2018-06-09T11:47:31.377Z,25.90
2018-06-09T11:50:00.442Z,25.80
2018-06-09T11:52:29.459Z,25.60
2018-06-09T11:54:58.531Z,25.40
2018-06-09T11:57:27.527Z,25.30
2018-06-09T11:59:56.610Z,25.30
2018-06-09T12:02:25.630Z,25.50
2018-06-09T12:04:55.375Z,25.80
2018-06-09T12:07:24.407Z,26.00
2018-06-09T12:09:53.440Z,26.00
2018-06-09T12:12:23.821Z,26.10
2018-06-09T12:14:52.927Z,26.20
2018-06-09T12:17:22.152Z,26.30
2018-06-09T12:19:51.588Z,26.40
2018-06-09T12:22:20.678Z,26.50
2018-06-09T12:24:49.826Z,26.40
2018-06-09T12:27:20.135Z,26.30
2018-06-09T12:29:49.279Z,26.30
2018-06-09T12:32:18.805Z,26.10
2018-06-09T12:34:48.114Z,25.90
2018-06-09T12:37:17.508Z,25.80
2018-06-09T12:39:47.222Z,25.60
2018-06-09T12:44:45.544Z,25.70
2018-06-09T12:47:15.245Z,25.90
2018-06-09T12:49:45.625Z,26.20
2018-06-09T12:52:14.824Z,26.30
2018-06-09T12:54:44.803Z,26.20
2018-06-09T12:57:13.863Z,26.20
2018-06-09T12:59:42.882Z,26.20
2018-06-09T13:02:12.306Z,26.20
2018-06-09T13:04:41.347Z,26.00
2018-06-09T13:07:10.414Z,25.80
2018-06-09T13:09:39.674Z,25.60
2018-06-09T13:12:08.710Z,25.40
2018-06-09T13:14:37.728Z,25.30
2018-06-09T13:17:06.809Z,25.20
2018-06-09T13:22:04.501Z,25.30
2018-06-09T13:24:33.529Z,25.50
2018-06-09T13:27:02.579Z,25.70
2018-06-09T13:29:31.616Z,25.90
2018-06-09T13:32:00.662Z,26.10
2018-06-09T13:34:29.776Z,26.20
2018-06-09T13:36:58.790Z,26.30
2018-06-09T13:39:27.838Z,26.40
2018-06-09T13:41:56.855Z,26.40
2018-06-09T13:44:25.951Z,26.50
2018-06-09T13:46:55.119Z,26.60
2018-06-09T13:49:24.116Z,26.80
2018-06-09T13:51:53.467Z,27.00
2018-06-09T13:54:22.620Z,27.00
2018-06-09T13:56:51.698Z,27.10
2018-06-09T13:59:20.799Z,27.10
2018-06-09T14:01:49.825Z,27.00
2018-06-09T14:04:18.883Z,26.90
2018-06-09T14:06:48.016Z,26.90
2018-06-09T14:09:17.043Z,26.80
2018-06-09T14:11:46.093Z,26.70
2018-06-09T14:14:15.128Z,26.80
2018-06-09T14:16:44.247Z,26.90
2018-06-09T14:19:13.236Z,26.90
2018-06-09T14:21:42.284Z,26.70
2018-06-09T14:24:11.428Z,26.70
2018-06-09T14:26:40.515Z,26.60
2018-06-09T14:29:09.578Z,26.50
2018-06-09T14:31:38.604Z,26.50
2018-06-09T14:34:07.640Z,26.40
2018-06-09T14:36:36.703Z,26.40
2018-06-09T14:39:07.984Z,26.40
2018-06-09T14:41:37.007Z,26.30
2018-06-09T14:44:06.087Z,26.30
2018-06-09T14:46:35.141Z,26.30
2018-06-09T14:49:04.186Z,26.30
2018-06-09T14:51:33.198Z,26.40
2018-06-09T14:54:02.226Z,26.40
2018-06-09T14:56:31.711Z,26.40
2018-06-09T14:59:00.705Z,26.50
2018-06-09T15:01:29.751Z,26.50
2018-06-09T15:03:58.727Z,26.60
2018-06-09T15:06:27.779Z,26.70
2018-06-09T15:08:56.792Z,26.70
2018-06-09T15:11:25.886Z,26.30
2018-06-09T15:13:54.911Z,26.10
2018-06-09T15:16:24.017Z,25.80
2018-06-09T15:18:53.194Z,25.60
2018-06-09T15:21:22.554Z,25.40
2018-06-09T15:23:51.607Z,25.30
2018-06-09T15:26:20.601Z,25.20
2018-06-09T15:31:18.219Z,25.10
2018-06-09T15:33:47.913Z,25.10
2018-06-09T15:36:17.116Z,25.00
2018-06-09T15:38:46.385Z,25.00
2018-06-09T15:41:15.694Z,25.00
2018-06-09T15:43:45.081Z,25.00
2018-06-09T15:46:14.401Z,25.10
2018-06-09T15:48:44.329Z,25.00
2018-06-09T15:51:13.919Z,25.00
2018-06-09T15:53:42.933Z,24.90
2018-06-09T15:56:11.979Z,24.90
2018-06-09T16:01:09.576Z,24.80
2018-06-09T16:03:38.624Z,24.50
2018-06-09T16:06:07.706Z,24.00
2018-06-09T16:08:36.947Z,23.00
2018-06-09T16:11:06.926Z,22.00
2018-06-09T16:13:36.040Z,21.30
2018-06-09T16:16:05.314Z,20.70
2018-06-09T16:18:34.449Z,20.30
2018-06-09T16:21:03.503Z,20.10
2018-06-09T16:23:32.659Z,19.90
2018-06-09T16:26:01.704Z,19.70
2018-06-09T16:28:30.785Z,19.60
2018-06-09T16:30:59.835Z,19.40
2018-06-09T16:33:28.907Z,19.30
2018-06-09T16:35:57.916Z,19.20
2018-06-09T16:38:26.961Z,19.10
2018-06-09T16:40:56.976Z,19.00
2018-06-09T16:43:26.047Z,18.90
2018-06-09T16:45:55.098Z,19.00
2018-06-09T16:48:24.159Z,19.00
2018-06-09T16:50:53.215Z,19.00
2018-06-09T16:53:22.263Z,19.00
2018-06-09T16:55:51.322Z,19.00
2018-06-09T16:58:20.338Z,19.00
2018-06-09T17:00:49.391Z,19.00
2018-06-09T17:03:18.384Z,19.00
2018-06-09T17:05:47.453Z,19.00
2018-06-09T17:08:16.509Z,19.00
2018-06-09T17:10:45.608Z,19.00
2018-06-09T17:13:14.619Z,19.00
2018-06-09T17:15:43.651Z,19.00
2018-06-09T17:18:12.742Z,19.00
2018-06-09T17:20:41.791Z,19.00
2018-06-09T17:23:10.851Z,19.10
2018-06-09T17:25:39.993Z,19.10
2018-06-09T17:28:10.072Z,19.20
2018-06-09T17:30:39.155Z,19.20
2018-06-09T17:33:08.188Z,19.20
2018-06-09T17:35:37.230Z,19.30
2018-06-09T17:38:06.247Z,19.40
2018-06-09T17:40:35.299Z,19.50
2018-06-09T17:43:04.398Z,19.60
2018-06-09T17:45:33.757Z,19.60
2018-06-09T17:48:02.798Z,19.70
2018-06-09T17:50:31.898Z,19.70
2018-06-09T17:53:01.059Z,19.70
2018-06-09T17:55:30.196Z,19.70
2018-06-09T17:57:59.271Z,19.80
2018-06-09T18:00:28.335Z,19.80
2018-06-09T18:02:57.378Z,19.80
2018-06-09T18:05:26.409Z,19.90
2018-06-09T18:07:55.470Z,19.90
2018-06-09T18:10:24.518Z,19.90
2018-06-09T18:12:53.576Z,19.90
2018-06-09T18:15:22.608Z,19.90
2018-06-09T18:17:51.704Z,20.00
2018-06-09T18:20:20.757Z,20.10
2018-06-09T18:22:49.835Z,20.10
2018-06-09T18:25:18.906Z,20.00
2018-06-09T18:27:47.988Z,19.90
2018-06-09T18:30:17.291Z,19.80
2018-06-09T18:32:46.343Z,19.80
2018-06-09T18:35:15.434Z,19.80
2018-06-09T18:37:44.507Z,19.80
2018-06-09T18:40:13.536Z,19.90
2018-06-09T18:42:42.644Z,19.90
2018-06-09T18:45:11.696Z,19.80
2018-06-09T18:47:40.733Z,19.80
2018-06-09T18:50:09.868Z,19.80
2018-06-09T18:52:38.965Z,19.80
2018-06-09T18:55:08.037Z,19.80
2018-06-09T18:57:37.128Z,19.80
2018-06-09T19:00:06.447Z,19.70
2018-06-09T19:02:35.486Z,19.60
2018-06-09T19:05:04.705Z,19.60
2018-06-09T19:07:33.890Z,19.50
2018-06-09T19:10:02.877Z,19.50
2018-06-09T19:12:31.927Z,19.40
2018-06-09T19:15:00.971Z,19.30
2018-06-09T19:17:30.061Z,19.30
2018-06-09T19:19:59.137Z,19.20
2018-06-09T19:22:28.938Z,19.20
2018-06-09T19:24:57.999Z,19.20
2018-06-09T19:27:27.021Z,19.20
2018-06-09T19:29:56.106Z,19.20
2018-06-09T19:32:25.107Z,19.20
2018-06-09T19:34:54.157Z,19.20
2018-06-09T19:37:23.188Z,19.20
2018-06-09T19:39:52.215Z,19.20
2018-06-09T19:42:21.228Z,19.10
2018-06-09T19:44:50.286Z,19.10
2018-06-09T19:47:19.326Z,19.10
2018-06-09T19:49:48.344Z,19.10
2018-06-09T19:52:17.393Z,19.10
2018-06-09T19:54:46.807Z,19.10
2018-06-09T19:57:15.879Z,19.10
2018-06-09T19:59:44.896Z,19.10
2018-06-09T20:02:13.964Z,19.10
2018-06-09T20:04:42.984Z,19.10
2018-06-09T20:07:12.023Z,19.00
2018-06-09T20:09:41.059Z,19.00
2018-06-09T20:12:10.147Z,19.00
2018-06-09T20:14:39.281Z,19.00
2018-06-09T20:17:08.298Z,19.00
2018-06-09T20:19:37.382Z,19.00
2018-06-09T20:22:06.535Z,19.00
2018-06-09T20:24:35.578Z,19.00
2018-06-09T20:27:04.647Z,18.90
2018-06-09T20:29:33.643Z,18.90
2018-06-09T20:32:02.768Z,18.90
2018-06-09T20:34:31.806Z,18.80
2018-06-09T20:37:00.891Z,18.80
2018-06-09T20:39:30.233Z,18.80
2018-06-09T20:41:59.308Z,18.80
2018-06-09T20:44:28.454Z,18.80
2018-06-09T20:46:57.588Z,18.80
2018-06-09T20:49:26.676Z,18.80
2018-06-09T20:51:55.779Z,18.80
2018-06-09T20:54:24.890Z,18.80
2018-06-09T20:56:53.924Z,18.80
2018-06-09T20:59:22.991Z,18.80
2018-06-09T21:01:52.946Z,18.80
2018-06-09T21:04:22.084Z,18.80
2018-06-09T21:06:51.294Z,18.80
2018-06-09T21:09:20.338Z,18.80
2018-06-09T21:11:49.385Z,18.80
2018-06-09T21:14:18.472Z,18.70
2018-06-09T21:16:47.535Z,18.70
2018-06-09T21:19:16.637Z,18.70
2018-06-09T21:21:45.688Z,18.60
2018-06-09T21:26:48.604Z,18.70
2018-06-09T21:29:22.659Z,18.70
2018-06-09T21:31:51.707Z,18.70
2018-06-09T21:34:32.610Z,18.70
2018-06-09T21:37:06.909Z,18.70
2018-06-09T21:39:41.550Z,18.70
2018-06-09T21:42:15.602Z,18.70
2018-06-09T21:44:52.673Z,18.70
2018-06-09T21:47:21.798Z,18.70
2018-06-09T21:49:50.946Z,18.70
2018-06-09T21:52:19.965Z,18.70
2018-06-09T21:54:49.072Z,18.70
2018-06-09T21:57:18.107Z,18.70
2018-06-09T21:59:47.188Z,18.70
2018-06-09T22:02:16.234Z,18.70
2018-06-09T22:04:45.284Z,18.70
2018-06-09T22:07:14.348Z,18.70
2018-06-09T22:09:43.359Z,18.70
2018-06-09T22:12:12.431Z,18.70
2018-06-09T22:14:41.530Z,18.70
2018-06-09T22:17:10.616Z,18.70
2018-06-09T22:19:39.695Z,18.70
2018-06-09T22:22:08.869Z,18.70
2018-06-09T22:24:37.935Z,18.70
2018-06-09T22:27:06.955Z,18.70
2018-06-09T22:29:36.030Z,18.70
2018-06-09T22:32:05.052Z,18.80
2018-06-09T22:34:34.084Z,18.80
2018-06-09T22:37:03.219Z,18.90
2018-06-09T22:39:32.314Z,18.90
2018-06-09T22:42:01.376Z,18.90
2018-06-09T22:44:30.490Z,18.90
2018-06-09T22:46:59.616Z,18.90
2018-06-09T22:49:28.702Z,18.90
2018-06-09T22:51:57.754Z,18.90
2018-06-09T22:54:26.765Z,18.90
2018-06-09T22:56:55.785Z,19.00
2018-06-09T22:59:24.773Z,18.90
2018-06-09T23:01:53.825Z,18.80
2018-06-09T23:04:22.877Z,18.80
2018-06-09T23:06:52.754Z,18.70
2018-06-09T23:09:21.891Z,18.70
2018-06-09T23:11:50.903Z,18.60
2018-06-09T23:14:19.962Z,18.50
2018-06-09T23:16:48.954Z,18.50
2018-06-09T23:19:18.010Z,18.40
2018-06-09T23:21:47.131Z,18.30
2018-06-09T23:24:16.171Z,18.30
2018-06-09T23:26:45.188Z,18.20
2018-06-09T23:29:14.194Z,18.20
2018-06-09T23:31:43.224Z,18.20
2018-06-09T23:34:12.241Z,18.20
2018-06-09T23:36:41.872Z,18.20
2018-06-09T23:39:10.874Z,18.20
2018-06-09T23:41:39.916Z,18.20
2018-06-09T23:44:08.920Z,18.10
2018-06-09T23:46:37.935Z,18.10
2018-06-09T23:49:06.936Z,18.00
2018-06-09T23:51:35.992Z,18.00
2018-06-09T23:54:05.066Z,18.00
2018-06-09T23:56:34.110Z,18.00
2018-06-09T23:59:04.068Z,18.00
